sensor_id;sensor_type;location;lat;lon;timestamp;temperature;humidity
64843;DHT22;51310;52.198;5.422;2022-07-03T00:02:00;17.90;90.80
64843;DHT22;51310;52.198;5.422;2022-07-03T00:04:26;17.90;92.10
64843;DHT22;51310;52.198;5.422;2022-07-03T00:06:53;17.70;92.60
64843;DHT22;51310;52.198;5.422;2022-07-03T00:09:20;17.90;92.00
64843;DHT22;51310;52.198;5.422;2022-07-03T00:11:46;17.80;91.90
64843;DHT22;51310;52.198;5.422;2022-07-03T00:14:12;17.60;92.50
64843;DHT22;51310;52.198;5.422;2022-07-03T00:16:38;17.60;93.80
64843;DHT22;51310;52.198;5.422;2022-07-03T00:19:04;17.60;93.00
64843;DHT22;51310;52.198;5.422;2022-07-03T00:21:44;18.90;94.80
64843;DHT22;51310;52.198;5.422;2022-07-03T00:24:32;18.00;95.20
64843;DHT22;51310;52.198;5.422;2022-07-03T00:27:33;17.10;95.70
64843;DHT22;51310;52.198;5.422;2022-07-03T00:30:01;18.20;97.30
64843;DHT22;51310;52.198;5.422;2022-07-03T00:32:29;17.20;95.90
64843;DHT22;51310;52.198;5.422;2022-07-03T00:34:56;17.10;96.50
64843;DHT22;51310;52.198;5.422;2022-07-03T00:37:23;17.10;96.60
64843;DHT22;51310;52.198;5.422;2022-07-03T00:39:50;17.00;97.50
64843;DHT22;51310;52.198;5.422;2022-07-03T00:42:17;17.90;98.90
64843;DHT22;51310;52.198;5.422;2022-07-03T00:44:51;16.80;99.20
64843;DHT22;51310;52.198;5.422;2022-07-03T00:47:22;16.80;99.50
64843;DHT22;51310;52.198;5.422;2022-07-03T00:49:52;16.90;98.70
64843;DHT22;51310;52.198;5.422;2022-07-03T00:52:21;16.80;99.00
64843;DHT22;51310;52.198;5.422;2022-07-03T00:54:56;16.80;99.20
64843;DHT22;51310;52.198;5.422;2022-07-03T00:57:29;18.50;98.90
64843;DHT22;51310;52.198;5.422;2022-07-03T00:59:56;18.70;98.40
64843;DHT22;51310;52.198;5.422;2022-07-03T01:05:35;16.70;98.40
64843;DHT22;51310;52.198;5.422;2022-07-03T01:14:23;16.60;99.90
64843;DHT22;51310;52.198;5.422;2022-07-03T01:17:06;16.60;99.90
64843;DHT22;51310;52.198;5.422;2022-07-03T01:20:03;16.50;99.90
64843;DHT22;51310;52.198;5.422;2022-07-03T01:22:42;16.60;99.90
64843;DHT22;51310;52.198;5.422;2022-07-03T01:33:26;16.30;99.90
64843;DHT22;51310;52.198;5.422;2022-07-03T01:36:00;16.30;99.90
64843;DHT22;51310;52.198;5.422;2022-07-03T01:38:37;16.40;99.90
64843;DHT22;51310;52.198;5.422;2022-07-03T01:41:07;16.40;99.90
64843;DHT22;51310;52.198;5.422;2022-07-03T01:43:42;16.30;99.90
64843;DHT22;51310;52.198;5.422;2022-07-03T01:46:18;16.30;99.90
64843;DHT22;51310;52.198;5.422;2022-07-03T01:48:54;16.20;99.90
64843;DHT22;51310;52.198;5.422;2022-07-03T01:51:21;16.20;99.90
64843;DHT22;51310;52.198;5.422;2022-07-03T01:53:50;16.20;99.90
64843;DHT22;51310;52.198;5.422;2022-07-03T01:56:20;16.90;99.90
64843;DHT22;51310;52.198;5.422;2022-07-03T01:58:49;16.90;99.90
64843;DHT22;51310;52.198;5.422;2022-07-03T02:10:06;16.00;99.90
64843;DHT22;51310;52.198;5.422;2022-07-03T02:12:38;16.00;99.90
64843;DHT22;51310;52.198;5.422;2022-07-03T02:15:17;16.20;99.90
64843;DHT22;51310;52.198;5.422;2022-07-03T02:17:48;18.00;99.90
64843;DHT22;51310;52.198;5.422;2022-07-03T02:20:17;15.90;99.90
64843;DHT22;51310;52.198;5.422;2022-07-03T02:22:47;15.80;99.90
64843;DHT22;51310;52.198;5.422;2022-07-03T02:25:33;15.90;99.90
64843;DHT22;51310;52.198;5.422;2022-07-03T02:31:24;15.80;99.90
64843;DHT22;51310;52.198;5.422;2022-07-03T02:33:56;15.70;99.90
64843;DHT22;51310;52.198;5.422;2022-07-03T02:36:27;15.80;99.90
64843;DHT22;51310;52.198;5.422;2022-07-03T02:38:57;15.70;99.90
64843;DHT22;51310;52.198;5.422;2022-07-03T02:41:34;15.70;99.90
64843;DHT22;51310;52.198;5.422;2022-07-03T02:44:23;15.70;99.90
64843;DHT22;51310;52.198;5.422;2022-07-03T02:50:08;15.70;99.90
64843;DHT22;51310;52.198;5.422;2022-07-03T03:01:38;15.70;99.90
64843;DHT22;51310;52.198;5.422;2022-07-03T03:04:26;15.70;99.90
64843;DHT22;51310;52.198;5.422;2022-07-03T03:07:09;15.80;99.90
64843;DHT22;51310;52.198;5.422;2022-07-03T03:09:45;15.90;99.90
64843;DHT22;51310;52.198;5.422;2022-07-03T03:12:14;15.90;99.90
64843;DHT22;51310;52.198;5.422;2022-07-03T03:14:42;16.00;99.90
64843;DHT22;51310;52.198;5.422;2022-07-03T03:17:23;16.10;99.90
64843;DHT22;51310;52.198;5.422;2022-07-03T03:19:55;16.00;99.90
64843;DHT22;51310;52.198;5.422;2022-07-03T03:22:47;16.10;99.90
64843;DHT22;51310;52.198;5.422;2022-07-03T03:25:28;16.20;99.90
64843;DHT22;51310;52.198;5.422;2022-07-03T03:27:54;16.30;99.90
64843;DHT22;51310;52.198;5.422;2022-07-03T03:30:21;16.40;99.90
64843;DHT22;51310;52.198;5.422;2022-07-03T03:32:47;16.30;99.90
64843;DHT22;51310;52.198;5.422;2022-07-03T03:35:13;16.30;99.90
64843;DHT22;51310;52.198;5.422;2022-07-03T03:37:39;16.30;99.90
64843;DHT22;51310;52.198;5.422;2022-07-03T03:40:05;17.60;99.90
64843;DHT22;51310;52.198;5.422;2022-07-03T03:42:31;16.20;99.90
64843;DHT22;51310;52.198;5.422;2022-07-03T03:44:57;16.20;99.90
64843;DHT22;51310;52.198;5.422;2022-07-03T03:47:24;16.20;99.80
64843;DHT22;51310;52.198;5.422;2022-07-03T03:49:50;16.20;99.90
64843;DHT22;51310;52.198;5.422;2022-07-03T03:52:16;16.20;99.90
64843;DHT22;51310;52.198;5.422;2022-07-03T03:54:42;16.50;99.90
64843;DHT22;51310;52.198;5.422;2022-07-03T03:57:21;16.20;99.90
64843;DHT22;51310;52.198;5.422;2022-07-03T03:59:49;16.20;99.10
64843;DHT22;51310;52.198;5.422;2022-07-03T04:02:16;16.20;98.20
64843;DHT22;51310;52.198;5.422;2022-07-03T04:04:43;15.00;97.60
64843;DHT22;51310;52.198;5.422;2022-07-03T04:07:10;16.30;97.50
64843;DHT22;51310;52.198;5.422;2022-07-03T04:09:36;16.30;97.20
64843;DHT22;51310;52.198;5.422;2022-07-03T04:12:02;16.40;97.50
64843;DHT22;51310;52.198;5.422;2022-07-03T04:14:30;16.40;97.80
64843;DHT22;51310;52.198;5.422;2022-07-03T04:16:56;16.60;98.10
64843;DHT22;51310;52.198;5.422;2022-07-03T04:19:22;17.00;97.60
64843;DHT22;51310;52.198;5.422;2022-07-03T04:21:49;16.50;96.20
64843;DHT22;51310;52.198;5.422;2022-07-03T04:24:17;15.50;95.00
64843;DHT22;51310;52.198;5.422;2022-07-03T04:26:43;16.50;94.90
64843;DHT22;51310;52.198;5.422;2022-07-03T04:29:09;16.60;94.60
64843;DHT22;51310;52.198;5.422;2022-07-03T04:31:35;16.80;94.10
64843;DHT22;51310;52.198;5.422;2022-07-03T04:34:01;16.90;92.40
64843;DHT22;51310;52.198;5.422;2022-07-03T04:36:27;18.10;93.00
64843;DHT22;51310;52.198;5.422;2022-07-03T04:38:54;17.00;92.80
64843;DHT22;51310;52.198;5.422;2022-07-03T04:41:20;17.00;92.10
64843;DHT22;51310;52.198;5.422;2022-07-03T04:43:46;17.10;92.60
64843;DHT22;51310;52.198;5.422;2022-07-03T04:46:12;18.50;92.20
64843;DHT22;51310;52.198;5.422;2022-07-03T04:48:38;17.20;91.10
64843;DHT22;51310;52.198;5.422;2022-07-03T04:51:04;17.20;91.70
64843;DHT22;51310;52.198;5.422;2022-07-03T04:53:30;17.50;91.60
64843;DHT22;51310;52.198;5.422;2022-07-03T04:55:56;17.40;91.20
64843;DHT22;51310;52.198;5.422;2022-07-03T04:58:22;17.40;90.60
64843;DHT22;51310;52.198;5.422;2022-07-03T05:00:48;17.60;90.70
64843;DHT22;51310;52.198;5.422;2022-07-03T05:03:14;17.70;90.60
64843;DHT22;51310;52.198;5.422;2022-07-03T05:05:40;18.00;88.20
64843;DHT22;51310;52.198;5.422;2022-07-03T05:08:06;18.30;86.50
64843;DHT22;51310;52.198;5.422;2022-07-03T05:10:32;18.80;81.40
64843;DHT22;51310;52.198;5.422;2022-07-03T05:12:58;19.10;79.20
64843;DHT22;51310;52.198;5.422;2022-07-03T05:15:24;19.30;75.90
64843;DHT22;51310;52.198;5.422;2022-07-03T05:17:50;19.20;75.90
64843;DHT22;51310;52.198;5.422;2022-07-03T05:20:16;18.70;79.20
64843;DHT22;51310;52.198;5.422;2022-07-03T05:22:58;19.00;80.70
64843;DHT22;51310;52.198;5.422;2022-07-03T05:25:27;19.20;77.70
64843;DHT22;51310;52.198;5.422;2022-07-03T05:27:55;19.50;76.10
64843;DHT22;51310;52.198;5.422;2022-07-03T05:30:23;19.30;77.10
64843;DHT22;51310;52.198;5.422;2022-07-03T05:32:51;19.10;78.10
64843;DHT22;51310;52.198;5.422;2022-07-03T05:35:17;19.90;78.10
64843;DHT22;51310;52.198;5.422;2022-07-03T05:37:43;18.90;79.90
64843;DHT22;51310;52.198;5.422;2022-07-03T05:40:10;18.70;82.50
64843;DHT22;51310;52.198;5.422;2022-07-03T05:42:36;18.60;83.70
64843;DHT22;51310;52.198;5.422;2022-07-03T05:47:29;19.00;82.40
64843;DHT22;51310;52.198;5.422;2022-07-03T05:49:55;19.30;81.00
64843;DHT22;51310;52.198;5.422;2022-07-03T05:52:21;19.70;77.70
64843;DHT22;51310;52.198;5.422;2022-07-03T05:54:48;20.80;79.50
64843;DHT22;51310;52.198;5.422;2022-07-03T05:57:14;19.60;76.60
64843;DHT22;51310;52.198;5.422;2022-07-03T05:59:40;19.70;76.30
64843;DHT22;51310;52.198;5.422;2022-07-03T06:02:06;19.50;76.70
64843;DHT22;51310;52.198;5.422;2022-07-03T06:04:32;19.40;79.50
64843;DHT22;51310;52.198;5.422;2022-07-03T06:06:58;19.70;77.70
64843;DHT22;51310;52.198;5.422;2022-07-03T06:09:24;20.10;76.80
64843;DHT22;51310;52.198;5.422;2022-07-03T06:11:50;20.20;74.00
64843;DHT22;51310;52.198;5.422;2022-07-03T06:14:16;20.30;73.60
64843;DHT22;51310;52.198;5.422;2022-07-03T06:16:42;20.20;72.90
64843;DHT22;51310;52.198;5.422;2022-07-03T06:19:08;20.00;75.00
64843;DHT22;51310;52.198;5.422;2022-07-03T06:21:33;20.10;74.20
64843;DHT22;51310;52.198;5.422;2022-07-03T06:23:59;19.80;75.30
64843;DHT22;51310;52.198;5.422;2022-07-03T06:26:26;19.70;78.40
64843;DHT22;51310;52.198;5.422;2022-07-03T06:28:54;21.30;77.70
64843;DHT22;51310;52.198;5.422;2022-07-03T06:31:20;20.00;77.80
64843;DHT22;51310;52.198;5.422;2022-07-03T06:33:46;20.40;77.40
64843;DHT22;51310;52.198;5.422;2022-07-03T06:36:12;20.00;76.50
64843;DHT22;51310;52.198;5.422;2022-07-03T06:38:38;20.20;76.00
64843;DHT22;51310;52.198;5.422;2022-07-03T06:41:04;20.10;76.30
64843;DHT22;51310;52.198;5.422;2022-07-03T06:43:30;20.20;77.90
64843;DHT22;51310;52.198;5.422;2022-07-03T06:45:55;20.20;77.20
64843;DHT22;51310;52.198;5.422;2022-07-03T06:48:21;20.30;77.70
64843;DHT22;51310;52.198;5.422;2022-07-03T06:50:47;20.50;76.90
64843;DHT22;51310;52.198;5.422;2022-07-03T06:53:14;20.50;75.90
64843;DHT22;51310;52.198;5.422;2022-07-03T06:55:40;20.60;76.30
64843;DHT22;51310;52.198;5.422;2022-07-03T06:58:06;20.40;77.40
64843;DHT22;51310;52.198;5.422;2022-07-03T07:00:31;20.80;74.80
64843;DHT22;51310;52.198;5.422;2022-07-03T07:02:57;20.70;76.20
64843;DHT22;51310;52.198;5.422;2022-07-03T07:05:23;20.70;75.00
64843;DHT22;51310;52.198;5.422;2022-07-03T07:07:49;20.30;79.30
64843;DHT22;51310;52.198;5.422;2022-07-03T07:10:15;22.10;80.60
64843;DHT22;51310;52.198;5.422;2022-07-03T07:12:41;20.30;81.20
64843;DHT22;51310;52.198;5.422;2022-07-03T07:15:07;20.10;83.10
64843;DHT22;51310;52.198;5.422;2022-07-03T07:17:33;20.20;85.00
64843;DHT22;51310;52.198;5.422;2022-07-03T07:19:59;20.20;78.60
64843;DHT22;51310;52.198;5.422;2022-07-03T07:22:25;20.90;83.80
64843;DHT22;51310;52.198;5.422;2022-07-03T07:24:52;20.20;80.80
64843;DHT22;51310;52.198;5.422;2022-07-03T07:27:18;20.20;80.70
64843;DHT22;51310;52.198;5.422;2022-07-03T07:29:45;20.30;77.40
64843;DHT22;51310;52.198;5.422;2022-07-03T07:32:11;20.20;78.50
64843;DHT22;51310;52.198;5.422;2022-07-03T07:34:37;20.30;80.10
64843;DHT22;51310;52.198;5.422;2022-07-03T07:37:03;20.30;80.80
64843;DHT22;51310;52.198;5.422;2022-07-03T07:39:29;20.10;78.60
64843;DHT22;51310;52.198;5.422;2022-07-03T07:41:54;20.00;79.60
64843;DHT22;51310;52.198;5.422;2022-07-03T07:44:20;19.90;81.00
64843;DHT22;51310;52.198;5.422;2022-07-03T07:46:46;20.60;79.40
64843;DHT22;51310;52.198;5.422;2022-07-03T07:49:12;20.10;80.30
64843;DHT22;51310;52.198;5.422;2022-07-03T07:51:38;20.20;77.20
64843;DHT22;51310;52.198;5.422;2022-07-03T07:54:04;20.10;75.50
64843;DHT22;51310;52.198;5.422;2022-07-03T07:56:30;20.40;76.40
64843;DHT22;51310;52.198;5.422;2022-07-03T07:58:56;20.70;73.00
64843;DHT22;51310;52.198;5.422;2022-07-03T08:01:22;20.80;70.90
64843;DHT22;51310;52.198;5.422;2022-07-03T08:04:06;20.70;71.70
64843;DHT22;51310;52.198;5.422;2022-07-03T08:06:51;20.80;72.90
64843;DHT22;51310;52.198;5.422;2022-07-03T08:09:17;20.90;69.60
64843;DHT22;51310;52.198;5.422;2022-07-03T08:11:43;22.50;72.40
64843;DHT22;51310;52.198;5.422;2022-07-03T08:14:09;20.80;71.10
64843;DHT22;51310;52.198;5.422;2022-07-03T08:16:36;20.50;73.10
64843;DHT22;51310;52.198;5.422;2022-07-03T08:19:04;20.70;73.40
64843;DHT22;51310;52.198;5.422;2022-07-03T08:21:30;20.90;72.00
64843;DHT22;51310;52.198;5.422;2022-07-03T08:23:57;21.10;69.90
64843;DHT22;51310;52.198;5.422;2022-07-03T08:26:23;21.10;68.80
64843;DHT22;51310;52.198;5.422;2022-07-03T08:28:49;21.40;65.80
64843;DHT22;51310;52.198;5.422;2022-07-03T08:31:15;21.40;64.10
64843;DHT22;51310;52.198;5.422;2022-07-03T08:33:41;21.70;65.10
64843;DHT22;51310;52.198;5.422;2022-07-03T08:36:07;23.10;66.10
64843;DHT22;51310;52.198;5.422;2022-07-03T08:38:34;21.60;60.20
64843;DHT22;51310;52.198;5.422;2022-07-03T08:41:01;21.20;60.40
64843;DHT22;51310;52.198;5.422;2022-07-03T08:43:29;21.40;59.80
64843;DHT22;51310;52.198;5.422;2022-07-03T08:45:56;21.50;60.70
64843;DHT22;51310;52.198;5.422;2022-07-03T08:48:25;21.80;61.00
64843;DHT22;51310;52.198;5.422;2022-07-03T08:50:53;22.10;61.00
64843;DHT22;51310;52.198;5.422;2022-07-03T08:53:19;22.30;59.30
64843;DHT22;51310;52.198;5.422;2022-07-03T08:55:47;22.30;60.00
64843;DHT22;51310;52.198;5.422;2022-07-03T08:58:14;22.40;60.20
64843;DHT22;51310;52.198;5.422;2022-07-03T09:00:41;22.70;59.40
64843;DHT22;51310;52.198;5.422;2022-07-03T09:03:11;22.60;54.40
64843;DHT22;51310;52.198;5.422;2022-07-03T09:05:38;22.00;58.00
64843;DHT22;51310;52.198;5.422;2022-07-03T09:08:07;21.50;60.70
64843;DHT22;51310;52.198;5.422;2022-07-03T09:10:34;21.60;60.90
64843;DHT22;51310;52.198;5.422;2022-07-03T09:13:00;21.80;61.50
64843;DHT22;51310;52.198;5.422;2022-07-03T09:15:26;22.20;59.80
64843;DHT22;51310;52.198;5.422;2022-07-03T09:18:11;22.20;59.00
64843;DHT22;51310;52.198;5.422;2022-07-03T09:20:39;22.30;58.40
64843;DHT22;51310;52.198;5.422;2022-07-03T09:23:20;22.30;58.80
64843;DHT22;51310;52.198;5.422;2022-07-03T09:26:13;22.00;58.70
64843;DHT22;51310;52.198;5.422;2022-07-03T09:28:44;22.20;58.60
64843;DHT22;51310;52.198;5.422;2022-07-03T09:31:20;22.30;56.80
64843;DHT22;51310;52.198;5.422;2022-07-03T09:33:53;22.20;59.20
64843;DHT22;51310;52.198;5.422;2022-07-03T09:42:07;21.80;58.90
64843;DHT22;51310;52.198;5.422;2022-07-03T09:44:40;21.70;60.10
64843;DHT22;51310;52.198;5.422;2022-07-03T09:47:17;22.10;58.90
64843;DHT22;51310;52.198;5.422;2022-07-03T09:52:48;22.00;60.40
64843;DHT22;51310;52.198;5.422;2022-07-03T09:55:18;21.80;61.50
64843;DHT22;51310;52.198;5.422;2022-07-03T09:57:57;21.80;61.90
64843;DHT22;51310;52.198;5.422;2022-07-03T10:00:30;22.20;60.20
64843;DHT22;51310;52.198;5.422;2022-07-03T10:03:01;22.60;60.00
64843;DHT22;51310;52.198;5.422;2022-07-03T10:08:03;23.30;55.80
64843;DHT22;51310;52.198;5.422;2022-07-03T10:10:40;23.30;56.90
64843;DHT22;51310;52.198;5.422;2022-07-03T10:13:12;22.90;61.80
64843;DHT22;51310;52.198;5.422;2022-07-03T10:15:40;22.80;56.70
64843;DHT22;51310;52.198;5.422;2022-07-03T10:18:09;22.60;57.10
64843;DHT22;51310;52.198;5.422;2022-07-03T10:23:15;21.80;62.00
64843;DHT22;51310;52.198;5.422;2022-07-03T10:25:43;21.50;62.50
64843;DHT22;51310;52.198;5.422;2022-07-03T10:28:16;21.10;64.50
64843;DHT22;51310;52.198;5.422;2022-07-03T10:30:44;20.90;67.00
64843;DHT22;51310;52.198;5.422;2022-07-03T10:33:12;21.00;66.10
64843;DHT22;51310;52.198;5.422;2022-07-03T10:35:44;21.20;66.30
64843;DHT22;51310;52.198;5.422;2022-07-03T10:38:35;21.30;64.60
64843;DHT22;51310;52.198;5.422;2022-07-03T10:41:28;21.30;65.70
64843;DHT22;51310;52.198;5.422;2022-07-03T10:44:25;21.50;63.00
64843;DHT22;51310;52.198;5.422;2022-07-03T10:52:48;21.30;64.50
64843;DHT22;51310;52.198;5.422;2022-07-03T10:55:16;21.30;63.70
64843;DHT22;51310;52.198;5.422;2022-07-03T10:58:07;21.10;65.90
64843;DHT22;51310;52.198;5.422;2022-07-03T11:00:54;21.10;65.60
64843;DHT22;51310;52.198;5.422;2022-07-03T11:09:30;21.10;66.80
64843;DHT22;51310;52.198;5.422;2022-07-03T11:11:56;21.40;66.40
64843;DHT22;51310;52.198;5.422;2022-07-03T11:14:29;21.10;66.80
64843;DHT22;51310;52.198;5.422;2022-07-03T11:17:18;21.80;67.30
64843;DHT22;51310;52.198;5.422;2022-07-03T11:19:48;20.90;68.00
64843;DHT22;51310;52.198;5.422;2022-07-03T11:25:50;18.90;92.70
64843;DHT22;51310;52.198;5.422;2022-07-03T11:33:46;18.40;99.90
64843;DHT22;51310;52.198;5.422;2022-07-03T11:38:40;18.20;99.90
64843;DHT22;51310;52.198;5.422;2022-07-03T11:41:09;18.20;99.90
64843;DHT22;51310;52.198;5.422;2022-07-03T11:43:36;18.70;99.90
64843;DHT22;51310;52.198;5.422;2022-07-03T11:46:04;20.30;99.90
64843;DHT22;51310;52.198;5.422;2022-07-03T11:48:30;18.90;99.90
64843;DHT22;51310;52.198;5.422;2022-07-03T11:51:02;19.20;99.90
64843;DHT22;51310;52.198;5.422;2022-07-03T11:56:03;19.30;97.50
64843;DHT22;51310;52.198;5.422;2022-07-03T11:59:00;19.50;98.10
64843;DHT22;51310;52.198;5.422;2022-07-03T12:01:33;20.60;98.90
64843;DHT22;51310;52.198;5.422;2022-07-03T12:06:47;20.20;92.00
64843;DHT22;51310;52.198;5.422;2022-07-03T12:09:16;20.50;90.10
64843;DHT22;51310;52.198;5.422;2022-07-03T12:14:43;20.90;82.40
64843;DHT22;51310;52.198;5.422;2022-07-03T12:17:25;20.80;78.30
64843;DHT22;51310;52.198;5.422;2022-07-03T12:20:01;20.70;81.10
64843;DHT22;51310;52.198;5.422;2022-07-03T12:22:33;20.80;82.60
64843;DHT22;51310;52.198;5.422;2022-07-03T12:25:04;20.70;83.70
64843;DHT22;51310;52.198;5.422;2022-07-03T12:27:39;20.70;80.70
64843;DHT22;51310;52.198;5.422;2022-07-03T12:30:12;20.40;79.70
64843;DHT22;51310;52.198;5.422;2022-07-03T12:32:45;20.60;79.80
64843;DHT22;51310;52.198;5.422;2022-07-03T12:35:11;20.50;81.80
64843;DHT22;51310;52.198;5.422;2022-07-03T12:37:39;20.30;84.20
64843;DHT22;51310;52.198;5.422;2022-07-03T12:40:08;20.20;86.00
64843;DHT22;51310;52.198;5.422;2022-07-03T12:42:53;19.90;88.10
64843;DHT22;51310;52.198;5.422;2022-07-03T12:45:22;19.50;94.30
64843;DHT22;51310;52.198;5.422;2022-07-03T12:48:04;19.00;99.50
64843;DHT22;51310;52.198;5.422;2022-07-03T12:50:52;18.70;99.30
64843;DHT22;51310;52.198;5.422;2022-07-03T12:53:53;21.90;99.90
64843;DHT22;51310;52.198;5.422;2022-07-03T12:56:20;19.40;99.90
64843;DHT22;51310;52.198;5.422;2022-07-03T12:58:45;18.50;99.90
64843;DHT22;51310;52.198;5.422;2022-07-03T13:01:32;18.70;99.90
64843;DHT22;51310;52.198;5.422;2022-07-03T13:03:59;19.20;99.40
64843;DHT22;51310;52.198;5.422;2022-07-03T13:06:26;19.60;98.80
64843;DHT22;51310;52.198;5.422;2022-07-03T13:09:00;19.90;95.60
64843;DHT22;51310;52.198;5.422;2022-07-03T13:11:48;20.00;91.80
64843;DHT22;51310;52.198;5.422;2022-07-03T13:14:15;20.10;90.30
64843;DHT22;51310;52.198;5.422;2022-07-03T13:16:49;21.30;87.50
64843;DHT22;51310;52.198;5.422;2022-07-03T13:19:18;20.70;82.70
64843;DHT22;51310;52.198;5.422;2022-07-03T13:21:48;21.00;87.30
64843;DHT22;51310;52.198;5.422;2022-07-03T13:24:18;21.00;76.10
64843;DHT22;51310;52.198;5.422;2022-07-03T13:26:46;21.20;76.70
64843;DHT22;51310;52.198;5.422;2022-07-03T13:29:14;21.20;71.40
64843;DHT22;51310;52.198;5.422;2022-07-03T13:31:40;20.90;70.40
64843;DHT22;51310;52.198;5.422;2022-07-03T13:34:06;20.60;74.50
64843;DHT22;51310;52.198;5.422;2022-07-03T13:36:33;20.30;77.60
64843;DHT22;51310;52.198;5.422;2022-07-03T13:38:59;22.10;80.10
64843;DHT22;51310;52.198;5.422;2022-07-03T13:41:26;20.30;83.90
64843;DHT22;51310;52.198;5.422;2022-07-03T13:43:53;20.40;79.60
64843;DHT22;51310;52.198;5.422;2022-07-03T13:46:21;20.80;79.60
64843;DHT22;51310;52.198;5.422;2022-07-03T13:48:49;21.30;77.50
64843;DHT22;51310;52.198;5.422;2022-07-03T13:51:16;21.20;70.50
64843;DHT22;51310;52.198;5.422;2022-07-03T13:53:42;20.90;69.70
64843;DHT22;51310;52.198;5.422;2022-07-03T13:56:08;20.80;71.00
64843;DHT22;51310;52.198;5.422;2022-07-03T13:58:34;20.50;74.60
64843;DHT22;51310;52.198;5.422;2022-07-03T14:00:59;20.40;73.40
64843;DHT22;51310;52.198;5.422;2022-07-03T14:03:26;20.40;71.70
64843;DHT22;51310;52.198;5.422;2022-07-03T14:05:52;20.40;71.70
64843;DHT22;51310;52.198;5.422;2022-07-03T14:08:19;22.50;72.20
64843;DHT22;51310;52.198;5.422;2022-07-03T14:10:46;20.70;67.90
64843;DHT22;51310;52.198;5.422;2022-07-03T14:13:12;20.80;66.20
64843;DHT22;51310;52.198;5.422;2022-07-03T14:15:39;21.00;64.50
64843;DHT22;51310;52.198;5.422;2022-07-03T14:18:05;20.80;64.50
64843;DHT22;51310;52.198;5.422;2022-07-03T14:20:31;21.70;66.80
64843;DHT22;51310;52.198;5.422;2022-07-03T14:22:57;20.70;66.20
64843;DHT22;51310;52.198;5.422;2022-07-03T14:25:23;21.30;65.30
64843;DHT22;51310;52.198;5.422;2022-07-03T14:27:49;22.00;64.80
64843;DHT22;51310;52.198;5.422;2022-07-03T14:30:34;20.80;64.00
64843;DHT22;51310;52.198;5.422;2022-07-03T14:33:18;20.90;64.70
64843;DHT22;51310;52.198;5.422;2022-07-03T14:35:44;21.00;63.70
64843;DHT22;51310;52.198;5.422;2022-07-03T14:38:11;21.80;67.10
64843;DHT22;51310;52.198;5.422;2022-07-03T14:40:37;20.50;66.80
64843;DHT22;51310;52.198;5.422;2022-07-03T14:43:03;21.70;68.70
64843;DHT22;51310;52.198;5.422;2022-07-03T14:45:29;20.20;69.30
64843;DHT22;51310;52.198;5.422;2022-07-03T14:47:55;20.10;69.00
64843;DHT22;51310;52.198;5.422;2022-07-03T14:50:21;20.20;70.80
64843;DHT22;51310;52.198;5.422;2022-07-03T14:52:47;21.50;70.00
64843;DHT22;51310;52.198;5.422;2022-07-03T14:55:13;20.40;67.20
64843;DHT22;51310;52.198;5.422;2022-07-03T14:57:52;20.50;68.00
64843;DHT22;51310;52.198;5.422;2022-07-03T15:00:33;20.80;66.00
64843;DHT22;51310;52.198;5.422;2022-07-03T15:03:05;20.90;64.30
64843;DHT22;51310;52.198;5.422;2022-07-03T15:05:34;21.10;63.40
64843;DHT22;51310;52.198;5.422;2022-07-03T15:11:02;20.70;63.40
64843;DHT22;51310;52.198;5.422;2022-07-03T15:13:33;20.70;62.60
64843;DHT22;51310;52.198;5.422;2022-07-03T15:16:00;20.70;62.70
64843;DHT22;51310;52.198;5.422;2022-07-03T15:18:28;22.70;62.10
64843;DHT22;51310;52.198;5.422;2022-07-03T15:20:55;20.90;58.60
64843;DHT22;51310;52.198;5.422;2022-07-03T15:23:25;20.80;61.30
64843;DHT22;51310;52.198;5.422;2022-07-03T15:25:52;20.90;62.10
64843;DHT22;51310;52.198;5.422;2022-07-03T15:28:19;22.40;62.70
64843;DHT22;51310;52.198;5.422;2022-07-03T15:30:49;20.80;61.50
64843;DHT22;51310;52.198;5.422;2022-07-03T15:33:17;21.50;58.70
64843;DHT22;51310;52.198;5.422;2022-07-03T15:35:54;20.60;59.90
64843;DHT22;51310;52.198;5.422;2022-07-03T15:38:44;20.80;57.90
64843;DHT22;51310;52.198;5.422;2022-07-03T15:41:25;21.00;58.20
64843;DHT22;51310;52.198;5.422;2022-07-03T15:44:17;20.90;56.60
64843;DHT22;51310;52.198;5.422;2022-07-03T15:47:10;21.00;56.50
64843;DHT22;51310;52.198;5.422;2022-07-03T15:49:51;21.00;57.60
64843;DHT22;51310;52.198;5.422;2022-07-03T15:52:23;21.20;57.90
64843;DHT22;51310;52.198;5.422;2022-07-03T15:57:34;21.30;58.60
64843;DHT22;51310;52.198;5.422;2022-07-03T16:00:21;20.90;59.40
64843;DHT22;51310;52.198;5.422;2022-07-03T16:02:54;21.30;57.90
64843;DHT22;51310;52.198;5.422;2022-07-03T16:05:45;21.10;58.10
64843;DHT22;51310;52.198;5.422;2022-07-03T16:08:13;20.90;58.10
64843;DHT22;51310;52.198;5.422;2022-07-03T16:10:40;20.70;58.50
64843;DHT22;51310;52.198;5.422;2022-07-03T16:13:08;20.70;58.40
64843;DHT22;51310;52.198;5.422;2022-07-03T16:15:42;20.80;56.80
64843;DHT22;51310;52.198;5.422;2022-07-03T16:18:10;20.80;58.00
64843;DHT22;51310;52.198;5.422;2022-07-03T16:20:37;20.80;57.20
64843;DHT22;51310;52.198;5.422;2022-07-03T16:23:11;20.80;56.90
64843;DHT22;51310;52.198;5.422;2022-07-03T16:25:38;20.60;58.70
64843;DHT22;51310;52.198;5.422;2022-07-03T16:28:07;20.80;57.60
64843;DHT22;51310;52.198;5.422;2022-07-03T16:30:43;21.00;56.60
64843;DHT22;51310;52.198;5.422;2022-07-03T16:33:13;23.40;56.10
64843;DHT22;51310;52.198;5.422;2022-07-03T16:35:47;21.60;53.00
64843;DHT22;51310;52.198;5.422;2022-07-03T16:38:38;21.40;51.10
64843;DHT22;51310;52.198;5.422;2022-07-03T16:41:12;21.30;50.50
64843;DHT22;51310;52.198;5.422;2022-07-03T16:43:44;21.20;50.00
64843;DHT22;51310;52.198;5.422;2022-07-03T16:46:12;22.70;50.70
64843;DHT22;51310;52.198;5.422;2022-07-03T16:48:43;22.30;47.70
64843;DHT22;51310;52.198;5.422;2022-07-03T16:51:22;21.90;48.70
64843;DHT22;51310;52.198;5.422;2022-07-03T16:53:54;21.40;50.80
64843;DHT22;51310;52.198;5.422;2022-07-03T16:56:20;21.10;50.60
64843;DHT22;51310;52.198;5.422;2022-07-03T16:58:46;21.50;49.70
64843;DHT22;51310;52.198;5.422;2022-07-03T17:01:12;21.80;47.90
64843;DHT22;51310;52.198;5.422;2022-07-03T17:03:39;22.10;47.20
64843;DHT22;51310;52.198;5.422;2022-07-03T17:06:06;22.20;47.20
64843;DHT22;51310;52.198;5.422;2022-07-03T17:08:35;22.20;46.70
64843;DHT22;51310;52.198;5.422;2022-07-03T17:11:02;21.80;48.70
64843;DHT22;51310;52.198;5.422;2022-07-03T17:13:29;21.50;50.60
64843;DHT22;51310;52.198;5.422;2022-07-03T17:15:56;21.60;51.20
64843;DHT22;51310;52.198;5.422;2022-07-03T17:18:30;21.60;51.70
64843;DHT22;51310;52.198;5.422;2022-07-03T17:21:05;21.40;52.40
64843;DHT22;51310;52.198;5.422;2022-07-03T17:23:32;21.60;53.20
64843;DHT22;51310;52.198;5.422;2022-07-03T17:26:02;22.20;51.00